Capewater — PBPQ — position and weather

sailwx.info

Track history (hours):
 
Tides and Currents Weather Stations Pressure Air Temp Water Temp Dewpoint Dewpoint Depression Visibility Wind Speed Wind Dir Waves Ship Positions

Capewater

Last reported at 2015-Mar-02 00:31 UTC. Time now 2015-Mar-02 01:06 UTC.
Position N 53°38' W 000°11'.

Length 100 m; draft 5.6 m.

Type: Tanker. MMSI: 246346000.

Date/timePositionNaut miles runAvg speedWind from/ knotsBaromVisibWave heightAir tempDewpointWater temp
2015-Mar-02 00:31N 53°38' W 000°11'0 0.0
2015-Mar-01 23:31N 53°38' W 000°11'0 0.0
2015-Mar-01 22:32N 53°38' W 000°11'1 1.3
2015-Mar-01 21:34N 53°38' W 000°09'1010.2
2015-Mar-01 20:34N 53°34' E 000°06'10 9.5
2015-Mar-01 19:33N 53°33' E 000°23'1010.2
2015-Mar-01 18:33N 53°31' E 000°39'2410.6
2015-Mar-01 16:18N 53°18' E 001°12'912.2
2015-Mar-01 15:33N 53°11' E 001°23'1212.3
2015-Mar-01 14:33N 53°03' E 001°38'1312.6
2015-Mar-01 13:33N 52°57' E 001°56'2713.3
2015-Mar-01 11:33N 52°34' E 002°19'5412.1
2015-Mar-01 07:05N 51°45' E 002°57'711.6
2015-Mar-01 06:31N 51°45' E 003°08'1110.8
2015-Mar-01 05:32N 51°38' E 003°21'1212.2
2015-Mar-01 04:34N 51°28' E 003°31'1110.7
2015-Mar-01 03:33N 51°22' E 003°45'1111.0
2015-Mar-01 02:33N 51°24' E 004°02'1212.0
2015-Mar-01 01:34N 51°18' E 004°19'1 1.1
2015-Mar-01 00:34N 51°17' E 004°20'1 0.7
2015-Feb-28 23:33N 51°16' E 004°21'1 0.9
2015-Feb-28 22:31N 51°16' E 004°22'0 0.0
2015-Feb-28 21:31N 51°16' E 004°22'0 0.0
2015-Feb-28 20:31N 51°16' E 004°22'0 0.0
2015-Feb-28 19:31N 51°16' E 004°22'0 0.0
2015-Feb-28 18:25N 51°16' E 004°22'0 0.0
2015-Feb-28 17:32N 51°16' E 004°22'0 0.0
2015-Feb-28 16:32N 51°16' E 004°22'0 0.0
2015-Feb-28 15:31N 51°16' E 004°22'0 0.0
2015-Feb-28 14:31N 51°16' E 004°22'0 0.0
2015-Feb-28 13:31N 51°16' E 004°22'0 0.0
2015-Feb-28 12:32N 51°16' E 004°22'0 0.0
2015-Feb-28 11:31N 51°16' E 004°22'0 0.0
2015-Feb-28 10:31N 51°16' E 004°22'0 0.0
2015-Feb-28 09:31N 51°16' E 004°22'0 0.0
2015-Feb-28 08:31N 51°16' E 004°22'0 0.0
2015-Feb-28 07:31N 51°16' E 004°22'0 0.0
2015-Feb-28 06:31N 51°16' E 004°22'0 0.0
2015-Feb-28 05:31N 51°16' E 004°22'0 0.0
2015-Feb-28 04:31N 51°16' E 004°22'0 0.0
2015-Feb-28 03:31N 51°16' E 004°22'0 0.0
2015-Feb-28 02:31N 51°16' E 004°22'0 0.0
2015-Feb-28 01:31N 51°16' E 004°22'0 0.0
2015-Feb-28 00:31N 51°16' E 004°22'0 0.0
2015-Feb-27 23:31N 51°16' E 004°22'0 0.0
2015-Feb-27 22:31N 51°16' E 004°22'5 5.2
2015-Feb-27 21:33N 51°20' E 004°18'1 1.0
2015-Feb-27 20:34N 51°21' E 004°17'6 6.1
2015-Feb-27 19:33N 51°22' E 004°08'8 8.3
2015-Feb-27 18:33N 51°22' E 003°54'1212.2
2015-Feb-27 17:33N 51°26' E 003°36'1111.3
2015-Feb-27 16:34N 51°34' E 003°24'11 9.9
2015-Feb-27 15:26N 51°44' E 003°16'8 7.7
2015-Feb-27 14:20N 51°53' E 003°18'6 7.9
2015-Feb-27 13:33N 51°59' E 003°19'56 8.0
2015-Feb-27 06:29N 52°52' E 003°51'9 8.4
2015-Feb-27 05:28N 52°58' E 004°01'8 8.6
2015-Feb-27 04:30N 53°03' E 004°11'26 8.4
2015-Feb-27 01:21N 53°26' E 004°34'7 8.1
2015-Feb-27 00:26N 53°33' E 004°38'7 7.8
2015-Feb-26 23:29N 53°40' E 004°41'7 7.5
2015-Feb-26 22:30N 53°47' E 004°46'7 7.6
2015-Feb-26 21:32N 53°54' E 004°49'8 8.0
2015-Feb-26 20:33N 54°02' E 004°52'8 7.8
2015-Feb-26 19:31N 54°08' E 004°59'8 8.4
2015-Feb-26 18:33N 54°16' E 005°06'8 6.2
2015-Feb-26 17:12N 54°22' E 005°14'45 6.8
2015-Feb-26 10:33N 55°01' E 005°53'22410.4
2015-Feb-25 13:07N 57°51' E 010°17'610.6
2015-Feb-25 12:33N 57°51' E 010°28'1111.2
2015-Feb-25 11:33N 57°51' E 010°49'1111.1
2015-Feb-25 10:33N 57°51' E 011°10'1110.9
2015-Feb-25 09:33N 57°53' E 011°30'1111.0
2015-Feb-25 08:33N 58°00' E 011°46'5 0.2
2015-Feb-24 05:25N 58°05' E 011°49'4 4.8
2015-Feb-24 04:33N 58°01' E 011°47'1414.0
2015-Feb-24 03:33N 57°52' E 011°27'1312.6
2015-Feb-24 02:33N 57°53' E 011°03'1414.3
2015-Feb-24 01:33N 57°53' E 010°37'27513.1
2015-Feb-23 04:32N 54°23' E 005°19'1313.1
2015-Feb-23 03:33N 54°13' E 005°06'1313.4
2015-Feb-23 02:33N 54°01' E 004°56'1413.9
2015-Feb-23 01:33N 53°47' E 004°53'1414.1
2015-Feb-23 00:33N 53°33' E 004°48'1414.0
2015-Feb-22 23:33N 53°20' E 004°40'1614.1
2015-Feb-22 22:27N 53°06' E 004°27'4114.3
2015-Feb-22 19:33N 52°30' E 003°55'1515.0
2015-Feb-22 18:33N 52°15' E 003°53'1413.7
2015-Feb-22 17:33N 52°02' E 003°57'1212.5
2015-Feb-22 16:33N 51°55' E 004°15'3 2.9
2015-Feb-22 15:31N 51°53' E 004°18'0 0.0
2015-Feb-22 14:31N 51°53' E 004°18'0 0.0
2015-Feb-22 13:28N 51°53' E 004°18'0 0.0
2015-Feb-22 12:25N 51°53' E 004°18'0 0.0
2015-Feb-22 11:22N 51°53' E 004°18'0 0.0
2015-Feb-22 10:28N 51°53' E 004°18'0 0.0
2015-Feb-22 09:31N 51°53' E 004°18'0 0.0
2015-Feb-22 08:28N 51°53' E 004°18'0 0.0
2015-Feb-22 07:31N 51°53' E 004°18'0 0.0
2015-Feb-22 06:31N 51°53' E 004°18'0 0.0
2015-Feb-22 05:28N 51°53' E 004°18'0 0.0
2015-Feb-22 04:25N 51°53' E 004°18'0 0.0
2015-Feb-22 03:31N 51°53' E 004°18'0 0.0
2015-Feb-22 02:28N 51°53' E 004°18'0 0.0
2015-Feb-22 01:31N 51°53' E 004°18'0 0.0
2015-Feb-22 00:25N 51°53' E 004°18'0 0.0
2015-Feb-21 23:31N 51°53' E 004°18'0 0.4
2015-Feb-21 22:33N 51°53' E 004°18'0 0.1
2015-Feb-21 21:32N 51°53' E 004°18'0 0.0
2015-Feb-21 20:32N 51°53' E 004°18'0 0.0
2015-Feb-21 19:29N 51°53' E 004°18'0 0.0
2015-Feb-21 18:32N 51°53' E 004°18'0 0.0
2015-Feb-21 17:32N 51°53' E 004°18'0 0.0
2015-Feb-21 16:29N 51°53' E 004°18'0 0.0
2015-Feb-21 15:32N 51°53' E 004°18'0 0.0
2015-Feb-21 14:32N 51°53' E 004°18'0 0.0
2015-Feb-21 13:32N 51°53' E 004°18'0 0.0
2015-Feb-21 12:32N 51°53' E 004°18'0 0.0
2015-Feb-21 11:29N 51°53' E 004°18'0 0.0
2015-Feb-21 10:26N 51°53' E 004°18'0 0.0
2015-Feb-21 09:26N 51°53' E 004°18'0 0.0
2015-Feb-21 08:26N 51°53' E 004°18'0 0.0
2015-Feb-21 07:26N 51°53' E 004°18'0 0.0
2015-Feb-21 06:26N 51°53' E 004°18'0 0.0
2015-Feb-21 05:32N 51°53' E 004°18'0 0.0
2015-Feb-21 04:29N 51°53' E 004°18'0 0.0
2015-Feb-21 03:32N 51°53' E 004°18'0 0.1
2015-Feb-21 02:33N 51°53' E 004°18'1 1.0
2015-Feb-21 01:32N 51°52' E 004°16'0 0.0
2015-Feb-21 00:32N 51°52' E 004°16'0 0.0
2015-Feb-20 23:26N 51°52' E 004°16'0 0.0
2015-Feb-20 22:32N 51°52' E 004°16'0 0.0
2015-Feb-20 21:32N 51°52' E 004°16'0 0.0
2015-Feb-20 20:32N 51°52' E 004°16'0 0.0
2015-Feb-20 19:32N 51°52' E 004°16'0 0.0
2015-Feb-20 18:32N 51°52' E 004°16'0 0.0
2015-Feb-20 17:32N 51°52' E 004°16'0 0.0
2015-Feb-20 16:26N 51°52' E 004°16'0 0.0
2015-Feb-20 15:32N 51°52' E 004°16'0 0.3
2015-Feb-20 14:26N 51°53' E 004°16'0 0.0
2015-Feb-20 13:32N 51°53' E 004°16'0 0.0
2015-Feb-20 12:26N 51°53' E 004°16'0 0.0
2015-Feb-20 11:32N 51°53' E 004°16'0 0.0
2015-Feb-20 10:32N 51°53' E 004°16'0 0.0
2015-Feb-20 09:32N 51°53' E 004°16'0 0.0
2015-Feb-20 08:29N 51°53' E 004°16'0 0.0
2015-Feb-20 07:32N 51°53' E 004°16'0 0.0
2015-Feb-20 06:32N 51°53' E 004°16'0 0.0
2015-Feb-20 05:29N 51°53' E 004°16'0 0.0
2015-Feb-20 04:32N 51°53' E 004°16'0 0.0
2015-Feb-20 03:26N 51°53' E 004°16'0 0.0
2015-Feb-20 02:29N 51°53' E 004°16'0 0.0
2015-Feb-20 01:29N 51°53' E 004°16'  
Track history (hours):
 
Tides and Currents Weather Stations Pressure Air Temp Water Temp Dewpoint Dewpoint Depression Visibility Wind Speed Wind Dir Waves Ship Positions

Capewater

Last reported at 2015-Mar-02 00:31 UTC. Time now 2015-Mar-02 01:06 UTC.
Position N 53°38' W 000°11'.

Length 100 m; draft 5.6 m.

Type: Tanker. MMSI: 246346000.

Date/timePositionNaut miles runAvg speedWind from/ knotsBaromVisibWave heightAir tempDewpointWater temp
2015-Mar-02 00:31N 53°38' W 000°11'0 0.0
2015-Mar-01 23:31N 53°38' W 000°11'0 0.0
2015-Mar-01 22:32N 53°38' W 000°11'1 1.3
2015-Mar-01 21:34N 53°38' W 000°09'1010.2
2015-Mar-01 20:34N 53°34' E 000°06'10 9.5
2015-Mar-01 19:33N 53°33' E 000°23'1010.2
2015-Mar-01 18:33N 53°31' E 000°39'2410.6
2015-Mar-01 16:18N 53°18' E 001°12'912.2
2015-Mar-01 15:33N 53°11' E 001°23'1212.3
2015-Mar-01 14:33N 53°03' E 001°38'1312.6
2015-Mar-01 13:33N 52°57' E 001°56'2713.3
2015-Mar-01 11:33N 52°34' E 002°19'5412.1
2015-Mar-01 07:05N 51°45' E 002°57'711.6
2015-Mar-01 06:31N 51°45' E 003°08'1110.8
2015-Mar-01 05:32N 51°38' E 003°21'1212.2
2015-Mar-01 04:34N 51°28' E 003°31'1110.7
2015-Mar-01 03:33N 51°22' E 003°45'1111.0
2015-Mar-01 02:33N 51°24' E 004°02'1212.0
2015-Mar-01 01:34N 51°18' E 004°19'1 1.1
2015-Mar-01 00:34N 51°17' E 004°20'1 0.7
2015-Feb-28 23:33N 51°16' E 004°21'1 0.9
2015-Feb-28 22:31N 51°16' E 004°22'0 0.0
2015-Feb-28 21:31N 51°16' E 004°22'0 0.0
2015-Feb-28 20:31N 51°16' E 004°22'0 0.0
2015-Feb-28 19:31N 51°16' E 004°22'0 0.0
2015-Feb-28 18:25N 51°16' E 004°22'0 0.0
2015-Feb-28 17:32N 51°16' E 004°22'0 0.0
2015-Feb-28 16:32N 51°16' E 004°22'0 0.0
2015-Feb-28 15:31N 51°16' E 004°22'0 0.0
2015-Feb-28 14:31N 51°16' E 004°22'0 0.0
2015-Feb-28 13:31N 51°16' E 004°22'0 0.0
2015-Feb-28 12:32N 51°16' E 004°22'0 0.0
2015-Feb-28 11:31N 51°16' E 004°22'0 0.0
2015-Feb-28 10:31N 51°16' E 004°22'0 0.0
2015-Feb-28 09:31N 51°16' E 004°22'0 0.0
2015-Feb-28 08:31N 51°16' E 004°22'0 0.0
2015-Feb-28 07:31N 51°16' E 004°22'0 0.0
2015-Feb-28 06:31N 51°16' E 004°22'0 0.0
2015-Feb-28 05:31N 51°16' E 004°22'0 0.0
2015-Feb-28 04:31N 51°16' E 004°22'0 0.0
2015-Feb-28 03:31N 51°16' E 004°22'0 0.0
2015-Feb-28 02:31N 51°16' E 004°22'0 0.0
2015-Feb-28 01:31N 51°16' E 004°22'0 0.0
2015-Feb-28 00:31N 51°16' E 004°22'0 0.0
2015-Feb-27 23:31N 51°16' E 004°22'0 0.0
2015-Feb-27 22:31N 51°16' E 004°22'5 5.2
2015-Feb-27 21:33N 51°20' E 004°18'1 1.0
2015-Feb-27 20:34N 51°21' E 004°17'6 6.1
2015-Feb-27 19:33N 51°22' E 004°08'8 8.3
2015-Feb-27 18:33N 51°22' E 003°54'1212.2
2015-Feb-27 17:33N 51°26' E 003°36'1111.3
2015-Feb-27 16:34N 51°34' E 003°24'11 9.9
2015-Feb-27 15:26N 51°44' E 003°16'8 7.7
2015-Feb-27 14:20N 51°53' E 003°18'6 7.9
2015-Feb-27 13:33N 51°59' E 003°19'56 8.0
2015-Feb-27 06:29N 52°52' E 003°51'9 8.4
2015-Feb-27 05:28N 52°58' E 004°01'8 8.6
2015-Feb-27 04:30N 53°03' E 004°11'26 8.4
2015-Feb-27 01:21N 53°26' E 004°34'7 8.1
2015-Feb-27 00:26N 53°33' E 004°38'7 7.8
2015-Feb-26 23:29N 53°40' E 004°41'7 7.5
2015-Feb-26 22:30N 53°47' E 004°46'7 7.6
2015-Feb-26 21:32N 53°54' E 004°49'8 8.0
2015-Feb-26 20:33N 54°02' E 004°52'8 7.8
2015-Feb-26 19:31N 54°08' E 004°59'8 8.4
2015-Feb-26 18:33N 54°16' E 005°06'8 6.2
2015-Feb-26 17:12N 54°22' E 005°14'45 6.8
2015-Feb-26 10:33N 55°01' E 005°53'22410.4
2015-Feb-25 13:07N 57°51' E 010°17'610.6
2015-Feb-25 12:33N 57°51' E 010°28'1111.2
2015-Feb-25 11:33N 57°51' E 010°49'1111.1
2015-Feb-25 10:33N 57°51' E 011°10'1110.9
2015-Feb-25 09:33N 57°53' E 011°30'1111.0
2015-Feb-25 08:33N 58°00' E 011°46'5 0.2
2015-Feb-24 05:25N 58°05' E 011°49'4 4.8
2015-Feb-24 04:33N 58°01' E 011°47'1414.0
2015-Feb-24 03:33N 57°52' E 011°27'1312.6
2015-Feb-24 02:33N 57°53' E 011°03'1414.3
2015-Feb-24 01:33N 57°53' E 010°37'27513.1
2015-Feb-23 04:32N 54°23' E 005°19'1313.1
2015-Feb-23 03:33N 54°13' E 005°06'1313.4
2015-Feb-23 02:33N 54°01' E 004°56'1413.9
2015-Feb-23 01:33N 53°47' E 004°53'1414.1
2015-Feb-23 00:33N 53°33' E 004°48'1414.0
2015-Feb-22 23:33N 53°20' E 004°40'1614.1
2015-Feb-22 22:27N 53°06' E 004°27'4114.3
2015-Feb-22 19:33N 52°30' E 003°55'1515.0
2015-Feb-22 18:33N 52°15' E 003°53'1413.7
2015-Feb-22 17:33N 52°02' E 003°57'1212.5
2015-Feb-22 16:33N 51°55' E 004°15'3 2.9
2015-Feb-22 15:31N 51°53' E 004°18'0 0.0
2015-Feb-22 14:31N 51°53' E 004°18'0 0.0
2015-Feb-22 13:28N 51°53' E 004°18'0 0.0
2015-Feb-22 12:25N 51°53' E 004°18'0 0.0
2015-Feb-22 11:22N 51°53' E 004°18'0 0.0
2015-Feb-22 10:28N 51°53' E 004°18'0 0.0
2015-Feb-22 09:31N 51°53' E 004°18'0 0.0
2015-Feb-22 08:28N 51°53' E 004°18'0 0.0
2015-Feb-22 07:31N 51°53' E 004°18'0 0.0
2015-Feb-22 06:31N 51°53' E 004°18'0 0.0
2015-Feb-22 05:28N 51°53' E 004°18'0 0.0
2015-Feb-22 04:25N 51°53' E 004°18'0 0.0
2015-Feb-22 03:31N 51°53' E 004°18'0 0.0
2015-Feb-22 02:28N 51°53' E 004°18'0 0.0
2015-Feb-22 01:31N 51°53' E 004°18'0 0.0
2015-Feb-22 00:25N 51°53' E 004°18'0 0.0
2015-Feb-21 23:31N 51°53' E 004°18'0 0.4
2015-Feb-21 22:33N 51°53' E 004°18'0 0.1
2015-Feb-21 21:32N 51°53' E 004°18'0 0.0
2015-Feb-21 20:32N 51°53' E 004°18'0 0.0
2015-Feb-21 19:29N 51°53' E 004°18'0 0.0
2015-Feb-21 18:32N 51°53' E 004°18'0 0.0
2015-Feb-21 17:32N 51°53' E 004°18'0 0.0
2015-Feb-21 16:29N 51°53' E 004°18'0 0.0
2015-Feb-21 15:32N 51°53' E 004°18'0 0.0
2015-Feb-21 14:32N 51°53' E 004°18'0 0.0
2015-Feb-21 13:32N 51°53' E 004°18'0 0.0
2015-Feb-21 12:32N 51°53' E 004°18'0 0.0
2015-Feb-21 11:29N 51°53' E 004°18'0 0.0
2015-Feb-21 10:26N 51°53' E 004°18'0 0.0
2015-Feb-21 09:26N 51°53' E 004°18'0 0.0
2015-Feb-21 08:26N 51°53' E 004°18'0 0.0
2015-Feb-21 07:26N 51°53' E 004°18'0 0.0
2015-Feb-21 06:26N 51°53' E 004°18'0 0.0
2015-Feb-21 05:32N 51°53' E 004°18'0 0.0
2015-Feb-21 04:29N 51°53' E 004°18'0 0.0
2015-Feb-21 03:32N 51°53' E 004°18'0 0.1
2015-Feb-21 02:33N 51°53' E 004°18'1 1.0
2015-Feb-21 01:32N 51°52' E 004°16'0 0.0
2015-Feb-21 00:32N 51°52' E 004°16'0 0.0
2015-Feb-20 23:26N 51°52' E 004°16'0 0.0
2015-Feb-20 22:32N 51°52' E 004°16'0 0.0
2015-Feb-20 21:32N 51°52' E 004°16'0 0.0
2015-Feb-20 20:32N 51°52' E 004°16'0 0.0
2015-Feb-20 19:32N 51°52' E 004°16'0 0.0
2015-Feb-20 18:32N 51°52' E 004°16'0 0.0
2015-Feb-20 17:32N 51°52' E 004°16'0 0.0
2015-Feb-20 16:26N 51°52' E 004°16'0 0.0
2015-Feb-20 15:32N 51°52' E 004°16'0 0.3
2015-Feb-20 14:26N 51°53' E 004°16'0 0.0
2015-Feb-20 13:32N 51°53' E 004°16'0 0.0
2015-Feb-20 12:26N 51°53' E 004°16'0 0.0
2015-Feb-20 11:32N 51°53' E 004°16'0 0.0
2015-Feb-20 10:32N 51°53' E 004°16'0 0.0
2015-Feb-20 09:32N 51°53' E 004°16'0 0.0
2015-Feb-20 08:29N 51°53' E 004°16'0 0.0
2015-Feb-20 07:32N 51°53' E 004°16'0 0.0
2015-Feb-20 06:32N 51°53' E 004°16'0 0.0
2015-Feb-20 05:29N 51°53' E 004°16'0 0.0
2015-Feb-20 04:32N 51°53' E 004°16'0 0.0
2015-Feb-20 03:26N 51°53' E 004°16'0 0.0
2015-Feb-20 02:29N 51°53' E 004°16'0 0.0
2015-Feb-20 01:29N 51°53' E 004°16'  

Dump ship's entire track history